createdAt,value
2023-08-04T00:01:51.466Z,17.90
2023-08-04T00:04:18.520Z,17.90
2023-08-04T00:06:45.562Z,17.90
2023-08-04T00:09:12.734Z,17.90
2023-08-04T00:11:39.789Z,17.80
2023-08-04T00:14:06.794Z,17.80
2023-08-04T00:16:34.819Z,17.80
2023-08-04T00:19:01.968Z,17.80
2023-08-04T00:21:29.062Z,17.80
2023-08-04T00:23:59.825Z,17.80
2023-08-04T00:26:27.036Z,17.80
2023-08-04T00:28:54.082Z,17.80
2023-08-04T00:31:21.124Z,17.70
2023-08-04T00:33:48.141Z,17.70
2023-08-04T00:36:15.202Z,17.70
2023-08-04T00:38:42.255Z,17.80
2023-08-04T00:41:09.379Z,17.70
2023-08-04T00:43:36.428Z,17.70
2023-08-04T00:46:03.548Z,17.70
2023-08-04T00:48:30.897Z,17.70
2023-08-04T00:50:58.291Z,17.70
2023-08-04T00:53:25.320Z,17.70
2023-08-04T00:55:52.564Z,17.70
2023-08-04T00:58:20.510Z,17.70
2023-08-04T01:00:47.567Z,17.70
2023-08-04T01:03:14.783Z,17.70
2023-08-04T01:05:52.681Z,17.60
2023-08-04T01:08:29.603Z,17.70
2023-08-04T01:11:09.486Z,17.70
2023-08-04T01:13:40.000Z,17.60
2023-08-04T01:16:09.176Z,17.70
2023-08-04T01:18:36.251Z,17.70
2023-08-04T01:21:06.966Z,17.70
2023-08-04T01:23:34.642Z,17.70
2023-08-04T01:26:03.853Z,17.60
2023-08-04T01:28:32.944Z,17.70
2023-08-04T01:31:01.885Z,17.70
2023-08-04T01:33:30.614Z,17.70
2023-08-04T01:35:57.824Z,17.70
2023-08-04T01:38:24.936Z,17.70
2023-08-04T01:40:52.131Z,17.70
2023-08-04T01:43:21.821Z,17.70
2023-08-04T01:45:48.930Z,17.70
2023-08-04T01:48:16.006Z,17.80
2023-08-04T01:50:44.040Z,17.80
2023-08-04T01:53:11.119Z,17.80
2023-08-04T01:55:38.224Z,17.70
2023-08-04T01:58:05.303Z,17.70
2023-08-04T02:00:32.390Z,17.70
2023-08-04T02:02:59.607Z,17.70
2023-08-04T02:05:26.704Z,17.70
2023-08-04T02:07:53.715Z,17.70
2023-08-04T02:10:20.739Z,17.70
2023-08-04T02:12:48.002Z,17.70
2023-08-04T02:15:15.079Z,17.70
2023-08-04T02:17:42.113Z,17.70
2023-08-04T02:20:09.724Z,17.70
2023-08-04T02:22:36.773Z,17.70
2023-08-04T02:25:04.204Z,17.70
2023-08-04T02:27:31.333Z,17.70
2023-08-04T02:29:58.473Z,17.70
2023-08-04T02:32:25.478Z,17.70
2023-08-04T02:34:52.521Z,17.70
2023-08-04T02:37:20.062Z,17.70
2023-08-04T02:39:47.145Z,17.70
2023-08-04T02:42:14.204Z,17.70
2023-08-04T02:44:41.436Z,17.60
2023-08-04T02:47:08.521Z,17.70
2023-08-04T02:49:37.313Z,17.70
2023-08-04T02:52:06.323Z,17.70
2023-08-04T02:54:33.403Z,17.70
2023-08-04T02:57:00.419Z,17.70
2023-08-04T02:59:27.959Z,17.70
2023-08-04T03:01:54.993Z,17.70
2023-08-04T03:04:22.116Z,17.70
2023-08-04T03:06:49.264Z,17.70
2023-08-04T03:09:16.334Z,17.70
2023-08-04T03:11:44.502Z,17.70
2023-08-04T03:14:11.722Z,17.60
2023-08-04T03:16:38.761Z,17.60
2023-08-04T03:19:05.849Z,17.60
2023-08-04T03:21:34.548Z,17.60
2023-08-04T03:24:01.597Z,17.60
2023-08-04T03:26:28.651Z,17.50
2023-08-04T03:28:55.690Z,17.50
2023-08-04T03:31:23.436Z,17.50
2023-08-04T03:33:50.491Z,17.50
2023-08-04T03:36:17.643Z,17.50
2023-08-04T03:38:44.699Z,17.50
2023-08-04T03:41:11.761Z,17.40
2023-08-04T03:43:38.859Z,17.40
2023-08-04T03:46:05.927Z,17.40
2023-08-04T03:48:33.051Z,17.40
2023-08-04T03:51:00.101Z,17.40
2023-08-04T03:53:27.267Z,17.40
2023-08-04T03:55:54.471Z,17.40
2023-08-04T03:58:21.514Z,17.30
2023-08-04T04:00:48.600Z,17.30
2023-08-04T04:03:15.661Z,17.30
2023-08-04T04:05:42.868Z,17.30
2023-08-04T04:08:09.892Z,17.30
2023-08-04T04:10:36.935Z,17.30
2023-08-04T04:13:04.121Z,17.30
2023-08-04T04:15:31.199Z,17.30
2023-08-04T04:17:58.284Z,17.30
2023-08-04T04:20:25.425Z,17.30
2023-08-04T04:22:54.191Z,17.30
2023-08-04T04:25:21.204Z,17.20
2023-08-04T04:27:48.301Z,17.20
2023-08-04T04:30:15.483Z,17.20
2023-08-04T04:32:42.542Z,17.20
2023-08-04T04:35:09.707Z,17.20
2023-08-04T04:37:36.796Z,17.20
2023-08-04T04:40:04.374Z,17.20
2023-08-04T04:42:34.216Z,17.20
2023-08-04T04:45:01.496Z,17.20
2023-08-04T04:47:29.098Z,17.20
2023-08-04T04:49:56.274Z,17.20
2023-08-04T04:52:37.112Z,17.20
2023-08-04T04:55:06.042Z,17.20
2023-08-04T04:57:34.928Z,17.20
2023-08-04T05:00:01.961Z,17.20
2023-08-04T05:02:28.983Z,17.20
2023-08-04T05:04:56.021Z,17.20
2023-08-04T05:07:23.069Z,17.20
2023-08-04T05:09:50.298Z,17.20
2023-08-04T05:12:17.318Z,17.10
2023-08-04T05:14:44.419Z,17.10
2023-08-04T05:17:13.520Z,17.20
2023-08-04T05:19:40.605Z,17.10
2023-08-04T05:22:07.630Z,17.10
2023-08-04T05:24:34.839Z,17.10
2023-08-04T05:27:03.132Z,17.20
2023-08-04T05:29:32.245Z,17.20
2023-08-04T05:32:00.969Z,17.20
2023-08-04T05:34:28.136Z,17.20
2023-08-04T05:36:55.172Z,17.20
2023-08-04T05:39:22.302Z,17.20
2023-08-04T05:41:49.570Z,17.20
2023-08-04T05:44:16.723Z,17.20
2023-08-04T05:46:43.844Z,17.20
2023-08-04T05:49:11.023Z,17.20
2023-08-04T05:51:38.115Z,17.20
2023-08-04T05:54:07.807Z,17.20
2023-08-04T05:56:36.416Z,17.20
2023-08-04T05:59:03.644Z,17.20
2023-08-04T06:01:31.130Z,17.20
2023-08-04T06:03:58.395Z,17.20
2023-08-04T06:06:25.645Z,17.20
2023-08-04T06:08:52.698Z,17.20
2023-08-04T06:11:19.957Z,17.30
2023-08-04T06:13:47.412Z,17.30
2023-08-04T06:16:14.619Z,17.30
2023-08-04T06:18:41.770Z,17.30
2023-08-04T06:21:08.913Z,17.30
2023-08-04T06:23:35.975Z,17.30
2023-08-04T06:26:03.585Z,17.30
2023-08-04T06:28:30.610Z,17.30
2023-08-04T06:30:57.956Z,17.30
2023-08-04T06:33:24.997Z,17.20
2023-08-04T06:35:52.177Z,17.30
2023-08-04T06:38:19.265Z,17.30
2023-08-04T06:40:46.315Z,17.30
2023-08-04T06:43:13.459Z,17.20
2023-08-04T06:45:40.574Z,17.30
2023-08-04T06:48:10.536Z,17.30
2023-08-04T06:50:37.719Z,17.30
2023-08-04T06:53:06.261Z,17.30
2023-08-04T06:55:33.372Z,17.40
2023-08-04T06:58:00.514Z,17.40
2023-08-04T07:00:27.921Z,17.50
2023-08-04T07:02:55.048Z,17.50
2023-08-04T07:05:22.170Z,17.50
2023-08-04T07:07:52.558Z,17.60
2023-08-04T07:10:19.815Z,17.60
2023-08-04T07:12:46.839Z,17.70
2023-08-04T07:15:14.627Z,17.70
2023-08-04T07:17:41.816Z,17.70
2023-08-04T07:20:09.742Z,17.80
2023-08-04T07:22:36.842Z,17.80
2023-08-04T07:25:04.160Z,17.90
2023-08-04T07:27:31.312Z,17.90
2023-08-04T07:29:58.408Z,17.90
2023-08-04T07:32:25.443Z,18.00
2023-08-04T07:34:52.514Z,18.10
2023-08-04T07:37:19.584Z,18.10
2023-08-04T07:39:46.694Z,18.20
2023-08-04T07:42:13.756Z,18.20
2023-08-04T07:44:40.834Z,18.20
2023-08-04T07:47:07.888Z,18.20
2023-08-04T07:49:34.999Z,18.30
2023-08-04T07:52:02.934Z,18.30
2023-08-04T07:54:29.949Z,18.30
2023-08-04T07:56:57.008Z,18.40
2023-08-04T07:59:24.578Z,18.40
2023-08-04T08:01:51.624Z,18.50
2023-08-04T08:04:18.685Z,18.50
2023-08-04T08:06:45.786Z,18.50
2023-08-04T08:09:13.269Z,18.60
2023-08-04T08:11:40.335Z,18.70
2023-08-04T08:14:07.526Z,18.70
2023-08-04T08:16:34.825Z,18.70
2023-08-04T08:19:02.926Z,18.70
2023-08-04T08:21:30.969Z,18.70
2023-08-04T08:23:58.195Z,18.80
2023-08-04T08:26:26.001Z,18.80
2023-08-04T08:28:53.005Z,18.80
2023-08-04T08:31:20.140Z,18.90
2023-08-04T08:33:47.282Z,18.90
2023-08-04T08:36:14.391Z,19.00
2023-08-04T08:38:41.431Z,19.00
2023-08-04T08:41:11.386Z,19.00
2023-08-04T08:43:38.759Z,19.00
2023-08-04T08:46:06.068Z,19.00
2023-08-04T08:48:37.616Z,19.00
2023-08-04T08:51:17.507Z,19.00
2023-08-04T08:53:50.735Z,19.00
2023-08-04T08:56:18.940Z,19.10
2023-08-04T08:58:46.491Z,19.10
2023-08-04T09:01:13.691Z,19.20
2023-08-04T09:03:40.822Z,19.10
2023-08-04T09:06:08.007Z,19.10
2023-08-04T09:08:35.045Z,19.10
2023-08-04T09:11:03.329Z,19.10
2023-08-04T09:13:30.567Z,19.10
2023-08-04T09:16:00.016Z,19.10
2023-08-04T09:18:28.623Z,19.10
2023-08-04T09:21:10.551Z,19.10
2023-08-04T09:23:52.535Z,19.10
2023-08-04T09:26:19.869Z,19.20
2023-08-04T09:29:02.504Z,19.20
2023-08-04T09:31:37.337Z,19.20
2023-08-04T09:34:06.625Z,19.30
2023-08-04T09:36:44.124Z,19.30
2023-08-04T09:39:11.734Z,19.40
2023-08-04T09:41:43.923Z,19.40
2023-08-04T09:44:11.882Z,19.50
2023-08-04T09:46:57.354Z,19.50
2023-08-04T09:49:25.254Z,19.50
2023-08-04T09:51:57.755Z,19.60
2023-08-04T09:54:24.910Z,19.70
2023-08-04T09:56:52.284Z,19.70
2023-08-04T09:59:20.850Z,19.70
2023-08-04T10:01:48.603Z,19.70
2023-08-04T10:04:16.793Z,19.70
2023-08-04T10:06:44.861Z,19.80
2023-08-04T10:09:13.512Z,19.80
2023-08-04T10:11:40.554Z,19.80
2023-08-04T10:14:07.658Z,19.80
2023-08-04T10:16:38.529Z,19.80
2023-08-04T10:19:11.120Z,19.80
2023-08-04T10:21:42.919Z,19.80
2023-08-04T10:24:13.120Z,19.80
2023-08-04T10:26:54.072Z,19.80
2023-08-04T10:29:30.722Z,19.90
2023-08-04T10:32:00.067Z,19.80
2023-08-04T10:34:27.294Z,19.90
2023-08-04T10:37:13.374Z,19.90
2023-08-04T10:39:46.871Z,19.90
2023-08-04T10:42:13.789Z,19.90
2023-08-04T10:45:06.526Z,19.90
2023-08-04T10:48:04.462Z,19.90
2023-08-04T10:50:34.004Z,19.90
2023-08-04T10:53:01.325Z,19.90
2023-08-04T10:55:28.655Z,19.90
2023-08-04T10:57:55.692Z,19.90
2023-08-04T11:00:23.781Z,19.90
2023-08-04T11:02:51.169Z,19.90
2023-08-04T11:05:22.447Z,19.90
2023-08-04T11:07:50.301Z,19.90
2023-08-04T11:10:17.612Z,19.90
2023-08-04T11:12:44.765Z,19.90
2023-08-04T11:15:12.444Z,19.80
2023-08-04T11:17:41.941Z,19.90
2023-08-04T11:22:49.835Z,19.80
2023-08-04T11:25:17.209Z,19.80
2023-08-04T11:27:46.474Z,19.80
2023-08-04T11:30:13.635Z,19.90
2023-08-04T11:32:40.795Z,19.80
2023-08-04T11:35:09.187Z,19.90
2023-08-04T11:37:36.463Z,19.90
2023-08-04T11:40:04.032Z,19.90
2023-08-04T11:42:31.176Z,20.00
2023-08-04T11:44:58.404Z,20.00
2023-08-04T11:47:26.962Z,20.00
2023-08-04T11:49:54.990Z,20.00
2023-08-04T11:52:24.253Z,20.10
2023-08-04T11:55:00.205Z,20.10
2023-08-04T11:57:27.459Z,20.10
2023-08-04T11:59:54.670Z,20.10
2023-08-04T12:02:22.929Z,20.10
2023-08-04T12:05:12.626Z,20.10
2023-08-04T12:07:39.977Z,20.10
2023-08-04T12:10:13.098Z,20.10
2023-08-04T12:12:42.467Z,20.10
2023-08-04T12:15:09.781Z,20.10
2023-08-04T12:17:39.728Z,20.10
2023-08-04T12:20:12.740Z,20.10
2023-08-04T12:22:42.564Z,20.10
2023-08-04T12:25:10.128Z,20.10
2023-08-04T12:27:37.270Z,20.10
2023-08-04T12:30:05.235Z,20.10
2023-08-04T12:32:32.579Z,20.10
2023-08-04T12:34:59.871Z,20.10
2023-08-04T12:37:27.253Z,20.10
2023-08-04T12:39:56.966Z,20.00
2023-08-04T12:42:25.342Z,20.10
2023-08-04T12:44:52.788Z,20.00
2023-08-04T12:47:19.833Z,20.00
2023-08-04T12:49:47.036Z,20.00
2023-08-04T12:52:14.103Z,20.10
2023-08-04T12:54:41.177Z,20.00
2023-08-04T12:57:10.163Z,20.00
2023-08-04T12:59:37.451Z,20.00
2023-08-04T13:02:04.763Z,20.00
2023-08-04T13:04:34.740Z,20.00
2023-08-04T13:07:04.686Z,20.00
2023-08-04T13:09:31.851Z,19.90
2023-08-04T13:11:58.989Z,19.90
2023-08-04T13:14:26.085Z,19.90
2023-08-04T13:16:53.160Z,19.80
2023-08-04T13:19:20.194Z,19.80
2023-08-04T13:21:47.562Z,19.80
2023-08-04T13:24:15.054Z,19.80
2023-08-04T13:26:42.143Z,19.80
2023-08-04T13:29:09.371Z,19.80
2023-08-04T13:31:36.747Z,19.80
2023-08-04T13:34:05.146Z,19.80
2023-08-04T13:36:34.372Z,19.80
2023-08-04T13:39:01.424Z,19.80
2023-08-04T13:41:28.514Z,19.80
2023-08-04T13:43:55.729Z,19.80
2023-08-04T13:46:22.939Z,19.80
2023-08-04T13:48:50.765Z,19.70
2023-08-04T13:51:26.814Z,19.70
2023-08-04T13:53:56.022Z,19.70
2023-08-04T13:56:23.163Z,19.70
2023-08-04T13:58:53.512Z,19.70
2023-08-04T14:01:20.931Z,19.70
2023-08-04T14:03:48.136Z,19.70
2023-08-04T14:06:15.891Z,19.70
2023-08-04T14:08:43.145Z,19.70
2023-08-04T14:11:10.265Z,19.60
2023-08-04T14:13:37.394Z,19.60
2023-08-04T14:16:15.649Z,19.60
2023-08-04T14:18:43.582Z,19.60
2023-08-04T14:21:10.872Z,19.60
2023-08-04T14:23:38.537Z,19.50
2023-08-04T14:26:05.705Z,19.50
2023-08-04T14:28:32.830Z,19.40
2023-08-04T14:30:59.972Z,19.40
2023-08-04T14:33:27.147Z,19.30
2023-08-04T14:35:54.275Z,19.30
2023-08-04T14:38:21.443Z,19.30
2023-08-04T14:40:48.546Z,19.20
2023-08-04T14:43:15.632Z,19.20
2023-08-04T14:45:42.687Z,19.10
2023-08-04T14:48:09.885Z,19.10
2023-08-04T14:50:41.656Z,19.00
2023-08-04T14:53:09.555Z,19.00
2023-08-04T14:55:38.164Z,19.00
2023-08-04T14:58:06.513Z,19.00
2023-08-04T15:00:34.504Z,19.00
2023-08-04T15:03:01.987Z,19.00
2023-08-04T15:05:34.555Z,19.00
2023-08-04T15:08:02.125Z,19.00
2023-08-04T15:10:29.702Z,18.90
2023-08-04T15:12:56.964Z,18.90
2023-08-04T15:15:24.102Z,18.90
2023-08-04T15:17:51.375Z,18.90
2023-08-04T15:20:19.894Z,18.90
2023-08-04T15:22:47.220Z,18.90
2023-08-04T15:25:14.336Z,18.90
2023-08-04T15:27:41.464Z,18.80
2023-08-04T15:30:09.154Z,18.80
2023-08-04T15:32:36.344Z,18.80
2023-08-04T15:35:03.574Z,18.80
2023-08-04T15:37:30.671Z,18.90
2023-08-04T15:39:58.234Z,18.90
2023-08-04T15:42:25.429Z,18.90
2023-08-04T15:44:52.536Z,18.90
2023-08-04T15:47:19.694Z,19.00
2023-08-04T15:49:46.788Z,18.90
2023-08-04T15:52:13.894Z,18.90
2023-08-04T15:54:41.143Z,18.90
2023-08-04T15:57:08.292Z,18.90
2023-08-04T15:59:35.380Z,18.90
2023-08-04T16:02:03.146Z,18.90
2023-08-04T16:04:30.434Z,18.90
2023-08-04T16:06:57.619Z,19.00
2023-08-04T16:09:24.643Z,19.00
2023-08-04T16:11:51.765Z,19.00
2023-08-04T16:14:18.863Z,19.00
2023-08-04T16:16:46.164Z,19.00
2023-08-04T16:19:13.582Z,19.00
2023-08-04T16:21:40.988Z,19.00
2023-08-04T16:24:08.190Z,19.00
2023-08-04T16:26:35.436Z,19.00
2023-08-04T16:29:04.240Z,19.00
2023-08-04T16:31:31.382Z,19.00
2023-08-04T16:34:01.606Z,19.00
2023-08-04T16:36:29.290Z,18.90
2023-08-04T16:38:56.897Z,18.90
2023-08-04T16:41:24.141Z,18.80
2023-08-04T16:43:51.239Z,18.80
2023-08-04T16:46:18.514Z,18.80
2023-08-04T16:48:45.791Z,18.70
2023-08-04T16:51:13.022Z,18.70
2023-08-04T16:53:40.218Z,18.70
2023-08-04T16:56:07.747Z,18.60
2023-08-04T16:58:35.414Z,18.60
2023-08-04T17:01:03.370Z,18.50
2023-08-04T17:03:30.892Z,18.50
2023-08-04T17:05:58.128Z,18.50
2023-08-04T17:08:25.190Z,18.50
2023-08-04T17:10:52.263Z,18.40
2023-08-04T17:13:19.547Z,18.40
2023-08-04T17:15:46.779Z,18.40
2023-08-04T17:18:14.015Z,18.40
2023-08-04T17:20:41.732Z,18.30
2023-08-04T17:23:09.116Z,18.30
2023-08-04T17:25:36.291Z,18.30
2023-08-04T17:28:03.510Z,18.30
2023-08-04T17:30:30.648Z,18.30
2023-08-04T17:32:58.192Z,18.30
2023-08-04T17:35:25.433Z,18.30
2023-08-04T17:37:52.618Z,18.30
2023-08-04T17:40:19.822Z,18.30
2023-08-04T17:42:47.299Z,18.30
2023-08-04T17:45:14.422Z,18.30
2023-08-04T17:47:42.279Z,18.30
2023-08-04T17:50:09.864Z,18.30
2023-08-04T17:52:36.910Z,18.20
2023-08-04T17:55:04.518Z,18.20
2023-08-04T17:57:31.743Z,18.20
2023-08-04T17:59:58.822Z,18.20
2023-08-04T18:02:26.317Z,18.20
2023-08-04T18:04:53.572Z,18.20
2023-08-04T18:07:20.748Z,18.20
2023-08-04T18:09:47.898Z,18.20
2023-08-04T18:12:15.331Z,18.20
2023-08-04T18:14:42.581Z,18.20
2023-08-04T18:17:10.003Z,18.10
2023-08-04T18:19:37.157Z,18.20
2023-08-04T18:22:07.253Z,18.10
2023-08-04T18:24:35.475Z,18.10
2023-08-04T18:27:02.560Z,18.10
2023-08-04T18:29:30.889Z,18.10
2023-08-04T18:31:59.421Z,18.10
2023-08-04T18:34:28.142Z,18.10
2023-08-04T18:36:56.291Z,18.10
2023-08-04T18:39:24.822Z,18.00
2023-08-04T18:41:54.002Z,18.00
2023-08-04T18:44:22.419Z,18.00
2023-08-04T18:46:51.193Z,18.00
2023-08-04T18:49:19.935Z,18.00
2023-08-04T18:51:48.448Z,18.00
2023-08-04T18:54:17.222Z,18.00
2023-08-04T18:56:45.812Z,18.00
2023-08-04T18:59:14.475Z,18.00
2023-08-04T19:01:43.144Z,18.00
2023-08-04T19:04:11.720Z,18.00
2023-08-04T19:06:40.745Z,18.00
2023-08-04T19:09:10.897Z,18.00
2023-08-04T19:11:39.659Z,18.00
2023-08-04T19:14:08.412Z,18.00
2023-08-04T19:16:37.395Z,17.90
2023-08-04T19:19:06.361Z,17.90
2023-08-04T19:21:35.214Z,17.90
2023-08-04T19:24:04.156Z,17.90
2023-08-04T19:26:33.387Z,17.90
2023-08-04T19:29:02.558Z,17.90
2023-08-04T19:31:31.709Z,17.90
2023-08-04T19:34:00.447Z,17.90
2023-08-04T19:36:29.170Z,17.90
2023-08-04T19:38:58.069Z,17.90
2023-08-04T19:41:26.814Z,17.90
2023-08-04T19:43:55.793Z,17.90
2023-08-04T19:46:24.439Z,17.90
2023-08-04T19:48:53.234Z,17.90
2023-08-04T19:51:21.931Z,17.90
2023-08-04T19:53:50.839Z,17.90
2023-08-04T19:56:19.621Z,17.80
2023-08-04T19:58:48.517Z,17.80
2023-08-04T20:01:17.414Z,17.80
2023-08-04T20:03:48.243Z,17.80
2023-08-04T20:06:17.273Z,17.70
2023-08-04T20:08:46.172Z,17.70
2023-08-04T20:11:14.714Z,17.70
2023-08-04T20:13:43.589Z,17.70
2023-08-04T20:16:18.894Z,17.60
2023-08-04T20:18:48.835Z,17.60
2023-08-04T20:21:21.884Z,17.60
2023-08-04T20:23:50.632Z,17.60
2023-08-04T20:26:19.557Z,17.60
2023-08-04T20:28:48.243Z,17.60
2023-08-04T20:31:19.679Z,17.60
2023-08-04T20:33:48.484Z,17.50
2023-08-04T20:36:17.512Z,17.50
2023-08-04T20:38:46.007Z,17.50
2023-08-04T20:41:18.948Z,17.50
2023-08-04T20:43:48.231Z,17.50
2023-08-04T20:46:21.746Z,17.50
2023-08-04T20:48:49.806Z,17.50
2023-08-04T20:51:17.897Z,17.40
2023-08-04T20:53:45.989Z,17.40
2023-08-04T20:56:14.560Z,17.40
2023-08-04T20:58:43.104Z,17.40
2023-08-04T21:01:11.392Z,17.40
2023-08-04T21:03:41.162Z,17.40
2023-08-04T21:06:08.348Z,17.40
2023-08-04T21:08:35.512Z,17.40
2023-08-04T21:11:02.914Z,17.40
2023-08-04T21:13:30.574Z,17.40
2023-08-04T21:16:00.723Z,17.40
2023-08-04T21:18:27.849Z,17.40
2023-08-04T21:20:55.319Z,17.40
2023-08-04T21:23:25.225Z,17.40
2023-08-04T21:25:53.278Z,17.40
2023-08-04T21:28:20.674Z,17.40
2023-08-04T21:30:55.050Z,17.40
2023-08-04T21:33:22.262Z,17.40
2023-08-04T21:36:02.247Z,17.40
2023-08-04T21:38:30.557Z,17.40
2023-08-04T21:41:04.092Z,17.30
2023-08-04T21:43:31.164Z,17.40
2023-08-04T21:46:08.299Z,17.40
2023-08-04T21:48:35.331Z,17.40
2023-08-04T21:51:13.437Z,17.30
2023-08-04T21:53:41.301Z,17.30
2023-08-04T21:56:08.635Z,17.30
2023-08-04T21:58:35.870Z,17.30
2023-08-04T22:01:11.059Z,17.30
2023-08-04T22:03:38.745Z,17.30
2023-08-04T22:06:06.103Z,17.40
2023-08-04T22:08:33.448Z,17.30
2023-08-04T22:11:11.569Z,17.30
2023-08-04T22:13:41.426Z,17.40
2023-08-04T22:16:09.121Z,17.30
2023-08-04T22:18:36.719Z,17.40
2023-08-04T22:21:06.850Z,17.30
2023-08-04T22:23:37.830Z,17.30
2023-08-04T22:26:07.699Z,17.30
2023-08-04T22:28:36.076Z,17.30
2023-08-04T22:31:03.626Z,17.30
2023-08-04T22:33:31.296Z,17.30
2023-08-04T22:35:59.059Z,17.30
2023-08-04T22:38:26.284Z,17.30
2023-08-04T22:40:56.633Z,17.30
2023-08-04T22:43:23.852Z,17.30
2023-08-04T22:45:51.011Z,17.30
2023-08-04T22:48:18.062Z,17.30
2023-08-04T22:50:45.159Z,17.30
2023-08-04T22:53:12.160Z,17.30
2023-08-04T22:55:39.452Z,17.30
2023-08-04T22:58:06.523Z,17.30
2023-08-04T23:00:33.689Z,17.20
2023-08-04T23:03:00.825Z,17.20
2023-08-04T23:05:33.644Z,17.20
2023-08-04T23:08:00.763Z,17.20
2023-08-04T23:10:27.805Z,17.20
2023-08-04T23:12:54.892Z,17.20
2023-08-04T23:15:22.033Z,17.20
2023-08-04T23:17:49.228Z,17.20
2023-08-04T23:20:16.406Z,17.20
2023-08-04T23:22:43.677Z,17.20
2023-08-04T23:25:10.688Z,17.20
2023-08-04T23:27:37.796Z,17.20
2023-08-04T23:30:06.033Z,17.10
2023-08-04T23:32:33.185Z,17.10
2023-08-04T23:35:00.248Z,17.20
2023-08-04T23:37:27.309Z,17.20
2023-08-04T23:39:54.380Z,17.10
2023-08-04T23:42:21.402Z,17.10
2023-08-04T23:44:48.456Z,17.10
2023-08-04T23:47:15.468Z,17.20
2023-08-04T23:49:42.477Z,17.10
2023-08-04T23:52:09.552Z,17.10
2023-08-04T23:54:36.616Z,17.10
2023-08-04T23:57:03.875Z,17.10
2023-08-04T23:59:30.957Z,17.10
